sensor_id;sensor_type;location;lat;lon;timestamp;P1;durP1;ratioP1;P2;durP2;ratioP2
48859;SDS011;34679;51.436;-2.518;2023-05-07T00:02:24;26.75;;;13.30;;
48859;SDS011;34679;51.436;-2.518;2023-05-07T00:04:50;32.47;;;14.80;;
48859;SDS011;34679;51.436;-2.518;2023-05-07T00:07:17;28.67;;;13.75;;
48859;SDS011;34679;51.436;-2.518;2023-05-07T00:09:43;28.40;;;12.98;;
48859;SDS011;34679;51.436;-2.518;2023-05-07T00:12:08;41.35;;;14.35;;
48859;SDS011;34679;51.436;-2.518;2023-05-07T00:14:34;35.13;;;15.93;;
48859;SDS011;34679;51.436;-2.518;2023-05-07T00:17:00;37.58;;;15.48;;
48859;SDS011;34679;51.436;-2.518;2023-05-07T00:19:26;35.67;;;16.23;;
48859;SDS011;34679;51.436;-2.518;2023-05-07T00:21:52;32.05;;;15.52;;
48859;SDS011;34679;51.436;-2.518;2023-05-07T00:24:21;35.55;;;16.05;;
48859;SDS011;34679;51.436;-2.518;2023-05-07T00:26:47;28.98;;;15.15;;
48859;SDS011;34679;51.436;-2.518;2023-05-07T00:29:12;39.38;;;16.58;;
48859;SDS011;34679;51.436;-2.518;2023-05-07T00:31:38;41.55;;;16.95;;
48859;SDS011;34679;51.436;-2.518;2023-05-07T00:34:03;41.90;;;17.33;;
48859;SDS011;34679;51.436;-2.518;2023-05-07T00:36:29;39.83;;;18.00;;
48859;SDS011;34679;51.436;-2.518;2023-05-07T00:38:56;36.47;;;16.42;;
48859;SDS011;34679;51.436;-2.518;2023-05-07T00:41:23;39.08;;;18.52;;
48859;SDS011;34679;51.436;-2.518;2023-05-07T00:43:49;38.17;;;18.58;;
48859;SDS011;34679;51.436;-2.518;2023-05-07T00:46:16;41.80;;;17.20;;
48859;SDS011;34679;51.436;-2.518;2023-05-07T00:48:43;41.17;;;18.90;;
48859;SDS011;34679;51.436;-2.518;2023-05-07T00:51:10;52.50;;;20.23;;
48859;SDS011;34679;51.436;-2.518;2023-05-07T00:53:36;44.20;;;18.60;;
48859;SDS011;34679;51.436;-2.518;2023-05-07T00:56:03;37.55;;;17.58;;
48859;SDS011;34679;51.436;-2.518;2023-05-07T00:58:29;42.88;;;19.77;;
48859;SDS011;34679;51.436;-2.518;2023-05-07T01:00:55;42.08;;;18.30;;
48859;SDS011;34679;51.436;-2.518;2023-05-07T01:03:21;34.28;;;16.48;;
48859;SDS011;34679;51.436;-2.518;2023-05-07T01:05:47;43.45;;;17.58;;
48859;SDS011;34679;51.436;-2.518;2023-05-07T01:08:13;35.42;;;17.75;;
48859;SDS011;34679;51.436;-2.518;2023-05-07T01:10:40;39.42;;;18.02;;
48859;SDS011;34679;51.436;-2.518;2023-05-07T01:13:08;42.05;;;17.48;;
48859;SDS011;34679;51.436;-2.518;2023-05-07T01:15:37;50.20;;;18.30;;
48859;SDS011;34679;51.436;-2.518;2023-05-07T01:18:05;38.53;;;19.08;;
48859;SDS011;34679;51.436;-2.518;2023-05-07T01:20:31;44.15;;;17.30;;
48859;SDS011;34679;51.436;-2.518;2023-05-07T01:22:57;39.17;;;17.90;;
48859;SDS011;34679;51.436;-2.518;2023-05-07T01:25:25;43.45;;;19.30;;
48859;SDS011;34679;51.436;-2.518;2023-05-07T01:27:51;37.40;;;18.58;;
48859;SDS011;34679;51.436;-2.518;2023-05-07T01:30:17;45.22;;;20.08;;
48859;SDS011;34679;51.436;-2.518;2023-05-07T01:35:37;42.17;;;19.42;;
48859;SDS011;34679;51.436;-2.518;2023-05-07T01:38:05;54.28;;;22.27;;
48859;SDS011;34679;51.436;-2.518;2023-05-07T01:40:31;52.33;;;21.48;;
48859;SDS011;34679;51.436;-2.518;2023-05-07T01:42:59;56.30;;;23.05;;
48859;SDS011;34679;51.436;-2.518;2023-05-07T01:45:26;52.50;;;21.95;;
48859;SDS011;34679;51.436;-2.518;2023-05-07T01:47:52;52.35;;;23.63;;
48859;SDS011;34679;51.436;-2.518;2023-05-07T01:50:19;45.53;;;21.60;;
48859;SDS011;34679;51.436;-2.518;2023-05-07T01:52:46;43.42;;;20.98;;
48859;SDS011;34679;51.436;-2.518;2023-05-07T01:55:14;44.03;;;22.33;;
48859;SDS011;34679;51.436;-2.518;2023-05-07T01:57:40;53.78;;;21.75;;
48859;SDS011;34679;51.436;-2.518;2023-05-07T02:00:06;52.63;;;22.63;;
48859;SDS011;34679;51.436;-2.518;2023-05-07T02:02:33;52.72;;;23.98;;
48859;SDS011;34679;51.436;-2.518;2023-05-07T02:04:59;56.88;;;24.90;;
48859;SDS011;34679;51.436;-2.518;2023-05-07T02:07:26;52.72;;;24.23;;
48859;SDS011;34679;51.436;-2.518;2023-05-07T02:09:51;50.38;;;24.13;;
48859;SDS011;34679;51.436;-2.518;2023-05-07T02:12:17;59.30;;;24.95;;
48859;SDS011;34679;51.436;-2.518;2023-05-07T02:14:43;49.95;;;25.50;;
48859;SDS011;34679;51.436;-2.518;2023-05-07T02:17:08;53.55;;;22.88;;
48859;SDS011;34679;51.436;-2.518;2023-05-07T02:19:34;51.28;;;21.08;;
48859;SDS011;34679;51.436;-2.518;2023-05-07T02:22:00;50.40;;;21.70;;
48859;SDS011;34679;51.436;-2.518;2023-05-07T02:24:25;42.28;;;21.48;;
48859;SDS011;34679;51.436;-2.518;2023-05-07T02:26:52;48.80;;;19.92;;
48859;SDS011;34679;51.436;-2.518;2023-05-07T02:29:18;41.13;;;20.77;;
48859;SDS011;34679;51.436;-2.518;2023-05-07T02:31:44;47.08;;;21.33;;
48859;SDS011;34679;51.436;-2.518;2023-05-07T02:34:10;62.88;;;22.45;;
48859;SDS011;34679;51.436;-2.518;2023-05-07T02:36:35;46.10;;;21.27;;
48859;SDS011;34679;51.436;-2.518;2023-05-07T02:39:01;47.42;;;21.25;;
48859;SDS011;34679;51.436;-2.518;2023-05-07T02:41:27;49.72;;;21.13;;
48859;SDS011;34679;51.436;-2.518;2023-05-07T02:43:53;49.90;;;20.15;;
48859;SDS011;34679;51.436;-2.518;2023-05-07T02:46:19;49.08;;;21.90;;
48859;SDS011;34679;51.436;-2.518;2023-05-07T02:48:44;50.63;;;20.23;;
48859;SDS011;34679;51.436;-2.518;2023-05-07T02:51:10;43.45;;;20.05;;
48859;SDS011;34679;51.436;-2.518;2023-05-07T02:53:36;34.78;;;17.75;;
48859;SDS011;34679;51.436;-2.518;2023-05-07T02:56:02;47.17;;;21.20;;
48859;SDS011;34679;51.436;-2.518;2023-05-07T02:58:28;33.13;;;17.42;;
48859;SDS011;34679;51.436;-2.518;2023-05-07T03:00:53;40.05;;;17.88;;
48859;SDS011;34679;51.436;-2.518;2023-05-07T03:03:20;39.80;;;17.65;;
48859;SDS011;34679;51.436;-2.518;2023-05-07T03:05:45;40.95;;;19.75;;
48859;SDS011;34679;51.436;-2.518;2023-05-07T03:08:11;39.15;;;18.20;;
48859;SDS011;34679;51.436;-2.518;2023-05-07T03:10:37;52.05;;;20.38;;
48859;SDS011;34679;51.436;-2.518;2023-05-07T03:13:03;39.10;;;17.83;;
48859;SDS011;34679;51.436;-2.518;2023-05-07T03:15:28;44.15;;;19.20;;
48859;SDS011;34679;51.436;-2.518;2023-05-07T03:17:54;46.97;;;18.33;;
48859;SDS011;34679;51.436;-2.518;2023-05-07T03:20:20;37.30;;;20.23;;
48859;SDS011;34679;51.436;-2.518;2023-05-07T03:22:46;41.53;;;18.50;;
48859;SDS011;34679;51.436;-2.518;2023-05-07T03:25:12;49.53;;;20.35;;
48859;SDS011;34679;51.436;-2.518;2023-05-07T03:27:39;41.22;;;19.30;;
48859;SDS011;34679;51.436;-2.518;2023-05-07T03:30:05;46.88;;;22.48;;
48859;SDS011;34679;51.436;-2.518;2023-05-07T03:32:31;44.88;;;20.67;;
48859;SDS011;34679;51.436;-2.518;2023-05-07T03:34:57;45.70;;;21.60;;
48859;SDS011;34679;51.436;-2.518;2023-05-07T03:37:23;50.65;;;23.13;;
48859;SDS011;34679;51.436;-2.518;2023-05-07T03:39:48;57.95;;;25.83;;
48859;SDS011;34679;51.436;-2.518;2023-05-07T03:42:14;57.47;;;26.73;;
48859;SDS011;34679;51.436;-2.518;2023-05-07T03:44:40;74.63;;;29.95;;
48859;SDS011;34679;51.436;-2.518;2023-05-07T03:47:05;68.07;;;30.13;;
48859;SDS011;34679;51.436;-2.518;2023-05-07T03:49:31;75.65;;;32.90;;
48859;SDS011;34679;51.436;-2.518;2023-05-07T03:51:57;81.63;;;37.53;;
48859;SDS011;34679;51.436;-2.518;2023-05-07T03:54:23;81.43;;;36.83;;
48859;SDS011;34679;51.436;-2.518;2023-05-07T03:56:48;86.57;;;38.15;;
48859;SDS011;34679;51.436;-2.518;2023-05-07T03:59:14;82.95;;;37.85;;
48859;SDS011;34679;51.436;-2.518;2023-05-07T04:01:40;85.85;;;37.50;;
48859;SDS011;34679;51.436;-2.518;2023-05-07T04:04:05;79.30;;;36.92;;
48859;SDS011;34679;51.436;-2.518;2023-05-07T04:06:31;79.30;;;36.42;;
48859;SDS011;34679;51.436;-2.518;2023-05-07T04:08:57;86.97;;;37.95;;
48859;SDS011;34679;51.436;-2.518;2023-05-07T04:11:22;94.30;;;39.17;;
48859;SDS011;34679;51.436;-2.518;2023-05-07T04:13:48;90.30;;;37.90;;
48859;SDS011;34679;51.436;-2.518;2023-05-07T04:16:14;93.30;;;37.70;;
48859;SDS011;34679;51.436;-2.518;2023-05-07T04:18:40;87.68;;;38.22;;
48859;SDS011;34679;51.436;-2.518;2023-05-07T04:21:13;84.35;;;37.47;;
48859;SDS011;34679;51.436;-2.518;2023-05-07T04:23:46;84.97;;;36.72;;
48859;SDS011;34679;51.436;-2.518;2023-05-07T04:26:12;89.43;;;36.70;;
48859;SDS011;34679;51.436;-2.518;2023-05-07T04:28:38;73.72;;;36.38;;
48859;SDS011;34679;51.436;-2.518;2023-05-07T04:31:05;77.18;;;35.83;;
48859;SDS011;34679;51.436;-2.518;2023-05-07T04:33:31;80.20;;;36.83;;
48859;SDS011;34679;51.436;-2.518;2023-05-07T04:35:56;81.47;;;34.60;;
48859;SDS011;34679;51.436;-2.518;2023-05-07T04:38:27;77.22;;;36.40;;
48859;SDS011;34679;51.436;-2.518;2023-05-07T04:40:56;75.85;;;35.75;;
48859;SDS011;34679;51.436;-2.518;2023-05-07T04:43:23;73.60;;;34.92;;
48859;SDS011;34679;51.436;-2.518;2023-05-07T04:45:50;74.20;;;35.35;;
48859;SDS011;34679;51.436;-2.518;2023-05-07T04:48:17;65.40;;;33.95;;
48859;SDS011;34679;51.436;-2.518;2023-05-07T04:50:44;71.53;;;34.63;;
48859;SDS011;34679;51.436;-2.518;2023-05-07T04:53:12;54.90;;;29.70;;
48859;SDS011;34679;51.436;-2.518;2023-05-07T04:55:37;53.72;;;28.40;;
48859;SDS011;34679;51.436;-2.518;2023-05-07T04:58:03;53.65;;;28.20;;
48859;SDS011;34679;51.436;-2.518;2023-05-07T05:00:30;49.72;;;26.95;;
48859;SDS011;34679;51.436;-2.518;2023-05-07T05:02:55;44.80;;;25.10;;
48859;SDS011;34679;51.436;-2.518;2023-05-07T05:05:21;51.25;;;26.50;;
48859;SDS011;34679;51.436;-2.518;2023-05-07T05:07:47;51.47;;;26.40;;
48859;SDS011;34679;51.436;-2.518;2023-05-07T05:10:12;42.08;;;22.45;;
48859;SDS011;34679;51.436;-2.518;2023-05-07T05:12:38;41.33;;;22.10;;
48859;SDS011;34679;51.436;-2.518;2023-05-07T05:15:04;42.05;;;20.52;;
48859;SDS011;34679;51.436;-2.518;2023-05-07T05:17:30;42.15;;;20.30;;
48859;SDS011;34679;51.436;-2.518;2023-05-07T05:19:56;40.28;;;19.73;;
48859;SDS011;34679;51.436;-2.518;2023-05-07T05:22:22;36.85;;;19.40;;
48859;SDS011;34679;51.436;-2.518;2023-05-07T05:24:48;38.05;;;19.85;;
48859;SDS011;34679;51.436;-2.518;2023-05-07T05:27:13;36.40;;;20.08;;
48859;SDS011;34679;51.436;-2.518;2023-05-07T05:29:39;47.90;;;20.67;;
48859;SDS011;34679;51.436;-2.518;2023-05-07T05:32:04;43.53;;;20.98;;
48859;SDS011;34679;51.436;-2.518;2023-05-07T05:34:30;43.30;;;21.40;;
48859;SDS011;34679;51.436;-2.518;2023-05-07T05:36:58;46.97;;;22.00;;
48859;SDS011;34679;51.436;-2.518;2023-05-07T05:39:24;51.58;;;22.85;;
48859;SDS011;34679;51.436;-2.518;2023-05-07T05:41:49;39.47;;;20.25;;
48859;SDS011;34679;51.436;-2.518;2023-05-07T05:44:15;48.05;;;22.42;;
48859;SDS011;34679;51.436;-2.518;2023-05-07T05:46:41;45.33;;;21.58;;
48859;SDS011;34679;51.436;-2.518;2023-05-07T05:49:07;43.30;;;20.58;;
48859;SDS011;34679;51.436;-2.518;2023-05-07T05:51:32;40.05;;;19.98;;
48859;SDS011;34679;51.436;-2.518;2023-05-07T05:53:59;38.45;;;19.58;;
48859;SDS011;34679;51.436;-2.518;2023-05-07T05:56:24;45.08;;;21.15;;
48859;SDS011;34679;51.436;-2.518;2023-05-07T05:58:50;48.72;;;22.38;;
48859;SDS011;34679;51.436;-2.518;2023-05-07T06:01:16;44.70;;;21.90;;
48859;SDS011;34679;51.436;-2.518;2023-05-07T06:03:43;40.80;;;21.05;;
48859;SDS011;34679;51.436;-2.518;2023-05-07T06:06:09;34.97;;;19.83;;
48859;SDS011;34679;51.436;-2.518;2023-05-07T06:08:34;39.97;;;20.33;;
48859;SDS011;34679;51.436;-2.518;2023-05-07T06:11:01;35.63;;;19.38;;
48859;SDS011;34679;51.436;-2.518;2023-05-07T06:13:27;44.28;;;21.05;;
48859;SDS011;34679;51.436;-2.518;2023-05-07T06:15:53;39.08;;;20.23;;
48859;SDS011;34679;51.436;-2.518;2023-05-07T06:18:19;42.33;;;19.73;;
48859;SDS011;34679;51.436;-2.518;2023-05-07T06:20:44;33.53;;;18.95;;
48859;SDS011;34679;51.436;-2.518;2023-05-07T06:23:10;26.77;;;17.83;;
48859;SDS011;34679;51.436;-2.518;2023-05-07T06:25:36;36.70;;;19.05;;
48859;SDS011;34679;51.436;-2.518;2023-05-07T06:28:02;28.58;;;16.20;;
48859;SDS011;34679;51.436;-2.518;2023-05-07T06:30:27;25.90;;;14.85;;
48859;SDS011;34679;51.436;-2.518;2023-05-07T06:32:53;28.08;;;13.55;;
48859;SDS011;34679;51.436;-2.518;2023-05-07T06:35:19;27.80;;;14.68;;
48859;SDS011;34679;51.436;-2.518;2023-05-07T06:37:44;20.42;;;13.75;;
48859;SDS011;34679;51.436;-2.518;2023-05-07T06:40:10;27.88;;;14.48;;
48859;SDS011;34679;51.436;-2.518;2023-05-07T06:42:36;21.33;;;12.05;;
48859;SDS011;34679;51.436;-2.518;2023-05-07T06:45:02;18.17;;;11.40;;
48859;SDS011;34679;51.436;-2.518;2023-05-07T06:47:29;13.32;;;10.82;;
48859;SDS011;34679;51.436;-2.518;2023-05-07T06:49:55;14.32;;;10.35;;
48859;SDS011;34679;51.436;-2.518;2023-05-07T06:52:20;11.00;;;9.02;;
48859;SDS011;34679;51.436;-2.518;2023-05-07T06:54:46;14.23;;;9.25;;
48859;SDS011;34679;51.436;-2.518;2023-05-07T06:57:11;13.88;;;9.43;;
48859;SDS011;34679;51.436;-2.518;2023-05-07T06:59:37;14.30;;;9.38;;
48859;SDS011;34679;51.436;-2.518;2023-05-07T07:02:03;11.13;;;8.40;;
48859;SDS011;34679;51.436;-2.518;2023-05-07T07:04:28;13.50;;;8.50;;
48859;SDS011;34679;51.436;-2.518;2023-05-07T07:06:55;9.30;;;8.10;;
48859;SDS011;34679;51.436;-2.518;2023-05-07T07:09:21;11.35;;;7.80;;
48859;SDS011;34679;51.436;-2.518;2023-05-07T07:11:47;12.73;;;7.63;;
48859;SDS011;34679;51.436;-2.518;2023-05-07T07:14:13;12.18;;;7.72;;
48859;SDS011;34679;51.436;-2.518;2023-05-07T07:16:39;10.75;;;7.38;;
48859;SDS011;34679;51.436;-2.518;2023-05-07T07:19:05;11.82;;;8.63;;
48859;SDS011;34679;51.436;-2.518;2023-05-07T07:21:31;11.38;;;8.57;;
48859;SDS011;34679;51.436;-2.518;2023-05-07T07:23:57;9.55;;;7.82;;
48859;SDS011;34679;51.436;-2.518;2023-05-07T07:26:22;11.90;;;8.50;;
48859;SDS011;34679;51.436;-2.518;2023-05-07T07:28:48;10.65;;;8.35;;
48859;SDS011;34679;51.436;-2.518;2023-05-07T07:31:14;12.45;;;7.60;;
48859;SDS011;34679;51.436;-2.518;2023-05-07T07:33:40;11.70;;;7.95;;
48859;SDS011;34679;51.436;-2.518;2023-05-07T07:36:06;10.90;;;6.80;;
48859;SDS011;34679;51.436;-2.518;2023-05-07T07:38:32;8.50;;;5.85;;
48859;SDS011;34679;51.436;-2.518;2023-05-07T07:40:59;12.65;;;6.28;;
48859;SDS011;34679;51.436;-2.518;2023-05-07T07:43:25;11.05;;;6.15;;
48859;SDS011;34679;51.436;-2.518;2023-05-07T07:45:50;10.07;;;5.30;;
48859;SDS011;34679;51.436;-2.518;2023-05-07T07:48:16;9.77;;;5.55;;
48859;SDS011;34679;51.436;-2.518;2023-05-07T07:50:42;12.35;;;5.95;;
48859;SDS011;34679;51.436;-2.518;2023-05-07T07:53:08;11.95;;;6.55;;
48859;SDS011;34679;51.436;-2.518;2023-05-07T07:55:37;12.77;;;5.45;;
48859;SDS011;34679;51.436;-2.518;2023-05-07T07:58:05;11.90;;;6.22;;
48859;SDS011;34679;51.436;-2.518;2023-05-07T08:00:30;9.13;;;5.30;;
48859;SDS011;34679;51.436;-2.518;2023-05-07T08:02:56;10.73;;;5.28;;
48859;SDS011;34679;51.436;-2.518;2023-05-07T08:05:22;11.52;;;4.75;;
48859;SDS011;34679;51.436;-2.518;2023-05-07T08:07:48;12.38;;;4.28;;
48859;SDS011;34679;51.436;-2.518;2023-05-07T08:10:18;7.60;;;3.65;;
48859;SDS011;34679;51.436;-2.518;2023-05-07T08:12:48;11.38;;;4.38;;
48859;SDS011;34679;51.436;-2.518;2023-05-07T08:15:14;6.45;;;3.90;;
48859;SDS011;34679;51.436;-2.518;2023-05-07T08:17:40;10.45;;;4.55;;
48859;SDS011;34679;51.436;-2.518;2023-05-07T08:20:06;9.55;;;4.20;;
48859;SDS011;34679;51.436;-2.518;2023-05-07T08:22:32;10.68;;;2.92;;
48859;SDS011;34679;51.436;-2.518;2023-05-07T08:25:01;11.52;;;3.40;;
48859;SDS011;34679;51.436;-2.518;2023-05-07T08:27:27;11.18;;;3.17;;
48859;SDS011;34679;51.436;-2.518;2023-05-07T08:29:53;8.48;;;2.92;;
48859;SDS011;34679;51.436;-2.518;2023-05-07T08:32:19;9.63;;;2.85;;
48859;SDS011;34679;51.436;-2.518;2023-05-07T08:34:45;9.00;;;2.33;;
48859;SDS011;34679;51.436;-2.518;2023-05-07T08:37:12;9.98;;;2.75;;
48859;SDS011;34679;51.436;-2.518;2023-05-07T08:39:38;6.70;;;2.33;;
48859;SDS011;34679;51.436;-2.518;2023-05-07T08:42:03;12.77;;;2.45;;
48859;SDS011;34679;51.436;-2.518;2023-05-07T08:44:32;9.43;;;2.40;;
48859;SDS011;34679;51.436;-2.518;2023-05-07T08:46:59;8.13;;;1.88;;
48859;SDS011;34679;51.436;-2.518;2023-05-07T08:49:27;6.15;;;1.80;;
48859;SDS011;34679;51.436;-2.518;2023-05-07T08:51:53;6.88;;;2.10;;
48859;SDS011;34679;51.436;-2.518;2023-05-07T08:54:18;7.88;;;2.38;;
48859;SDS011;34679;51.436;-2.518;2023-05-07T08:56:46;10.70;;;2.45;;
48859;SDS011;34679;51.436;-2.518;2023-05-07T08:59:11;5.00;;;2.28;;
48859;SDS011;34679;51.436;-2.518;2023-05-07T09:01:37;8.60;;;2.35;;
48859;SDS011;34679;51.436;-2.518;2023-05-07T09:04:03;5.45;;;1.77;;
48859;SDS011;34679;51.436;-2.518;2023-05-07T09:06:30;5.40;;;2.30;;
48859;SDS011;34679;51.436;-2.518;2023-05-07T09:08:56;5.65;;;1.90;;
48859;SDS011;34679;51.436;-2.518;2023-05-07T09:11:23;13.02;;;2.65;;
48859;SDS011;34679;51.436;-2.518;2023-05-07T09:13:53;7.57;;;2.80;;
48859;SDS011;34679;51.436;-2.518;2023-05-07T09:16:21;8.75;;;3.97;;
48859;SDS011;34679;51.436;-2.518;2023-05-07T09:18:47;13.15;;;4.35;;
48859;SDS011;34679;51.436;-2.518;2023-05-07T09:21:20;12.10;;;3.92;;
48859;SDS011;34679;51.436;-2.518;2023-05-07T09:23:47;7.07;;;3.80;;
48859;SDS011;34679;51.436;-2.518;2023-05-07T09:26:15;7.93;;;3.63;;
48859;SDS011;34679;51.436;-2.518;2023-05-07T09:28:41;10.18;;;4.45;;
48859;SDS011;34679;51.436;-2.518;2023-05-07T09:31:07;11.27;;;5.10;;
48859;SDS011;34679;51.436;-2.518;2023-05-07T09:33:34;9.50;;;4.45;;
48859;SDS011;34679;51.436;-2.518;2023-05-07T09:36:06;9.00;;;4.47;;
48859;SDS011;34679;51.436;-2.518;2023-05-07T09:38:34;10.15;;;4.10;;
48859;SDS011;34679;51.436;-2.518;2023-05-07T09:41:11;13.00;;;4.35;;
48859;SDS011;34679;51.436;-2.518;2023-05-07T09:43:38;7.15;;;4.95;;
48859;SDS011;34679;51.436;-2.518;2023-05-07T09:46:11;9.75;;;6.60;;
48859;SDS011;34679;51.436;-2.518;2023-05-07T09:48:39;13.30;;;6.53;;
48859;SDS011;34679;51.436;-2.518;2023-05-07T09:53:47;13.20;;;7.53;;
48859;SDS011;34679;51.436;-2.518;2023-05-07T09:56:13;10.93;;;7.90;;
48859;SDS011;34679;51.436;-2.518;2023-05-07T09:58:42;10.13;;;8.45;;
48859;SDS011;34679;51.436;-2.518;2023-05-07T10:01:10;15.65;;;10.50;;
48859;SDS011;34679;51.436;-2.518;2023-05-07T10:03:37;13.27;;;10.00;;
48859;SDS011;34679;51.436;-2.518;2023-05-07T10:06:06;13.93;;;9.93;;
48859;SDS011;34679;51.436;-2.518;2023-05-07T10:08:33;13.88;;;8.82;;
48859;SDS011;34679;51.436;-2.518;2023-05-07T10:11:00;12.48;;;8.18;;
48859;SDS011;34679;51.436;-2.518;2023-05-07T10:13:26;14.80;;;9.68;;
48859;SDS011;34679;51.436;-2.518;2023-05-07T10:15:52;13.20;;;9.23;;
48859;SDS011;34679;51.436;-2.518;2023-05-07T10:18:19;14.43;;;8.57;;
48859;SDS011;34679;51.436;-2.518;2023-05-07T10:20:48;13.23;;;8.13;;
48859;SDS011;34679;51.436;-2.518;2023-05-07T10:23:17;12.02;;;7.63;;
48859;SDS011;34679;51.436;-2.518;2023-05-07T10:25:47;9.80;;;7.05;;
48859;SDS011;34679;51.436;-2.518;2023-05-07T10:28:13;15.60;;;8.38;;
48859;SDS011;34679;51.436;-2.518;2023-05-07T10:30:55;10.18;;;6.45;;
48859;SDS011;34679;51.436;-2.518;2023-05-07T10:33:45;9.02;;;5.38;;
48859;SDS011;34679;51.436;-2.518;2023-05-07T10:36:13;12.80;;;5.97;;
48859;SDS011;34679;51.436;-2.518;2023-05-07T10:38:39;9.98;;;5.13;;
48859;SDS011;34679;51.436;-2.518;2023-05-07T10:41:05;8.55;;;4.43;;
48859;SDS011;34679;51.436;-2.518;2023-05-07T10:43:41;9.63;;;3.65;;
48859;SDS011;34679;51.436;-2.518;2023-05-07T10:46:15;7.68;;;3.83;;
48859;SDS011;34679;51.436;-2.518;2023-05-07T10:51:27;8.77;;;3.63;;
48859;SDS011;34679;51.436;-2.518;2023-05-07T10:56:35;10.35;;;3.58;;
48859;SDS011;34679;51.436;-2.518;2023-05-07T11:02:01;7.47;;;3.83;;
48859;SDS011;34679;51.436;-2.518;2023-05-07T11:04:29;6.22;;;4.38;;
48859;SDS011;34679;51.436;-2.518;2023-05-07T11:15:03;10.02;;;5.60;;
48859;SDS011;34679;51.436;-2.518;2023-05-07T11:26:06;9.75;;;5.15;;
48859;SDS011;34679;51.436;-2.518;2023-05-07T11:28:39;8.20;;;5.55;;
48859;SDS011;34679;51.436;-2.518;2023-05-07T11:31:06;8.70;;;5.45;;
48859;SDS011;34679;51.436;-2.518;2023-05-07T11:33:32;9.00;;;5.63;;
48859;SDS011;34679;51.436;-2.518;2023-05-07T11:35:59;9.85;;;4.65;;
48859;SDS011;34679;51.436;-2.518;2023-05-07T11:38:28;7.15;;;5.20;;
48859;SDS011;34679;51.436;-2.518;2023-05-07T11:40:58;11.55;;;5.28;;
48859;SDS011;34679;51.436;-2.518;2023-05-07T11:43:25;10.15;;;5.10;;
48859;SDS011;34679;51.436;-2.518;2023-05-07T11:45:52;7.43;;;4.13;;
48859;SDS011;34679;51.436;-2.518;2023-05-07T11:48:19;6.78;;;4.70;;
48859;SDS011;34679;51.436;-2.518;2023-05-07T11:50:54;7.90;;;3.80;;
48859;SDS011;34679;51.436;-2.518;2023-05-07T11:53:26;9.27;;;4.53;;
48859;SDS011;34679;51.436;-2.518;2023-05-07T11:56:06;5.30;;;4.78;;
48859;SDS011;34679;51.436;-2.518;2023-05-07T11:58:32;10.48;;;5.35;;
48859;SDS011;34679;51.436;-2.518;2023-05-07T12:00:58;8.15;;;4.40;;
48859;SDS011;34679;51.436;-2.518;2023-05-07T12:03:24;12.73;;;5.07;;
48859;SDS011;34679;51.436;-2.518;2023-05-07T12:05:50;8.35;;;4.95;;
48859;SDS011;34679;51.436;-2.518;2023-05-07T12:08:16;6.20;;;4.43;;
48859;SDS011;34679;51.436;-2.518;2023-05-07T12:10:43;10.02;;;6.68;;
48859;SDS011;34679;51.436;-2.518;2023-05-07T12:13:15;9.45;;;5.82;;
48859;SDS011;34679;51.436;-2.518;2023-05-07T12:15:45;13.85;;;7.60;;
48859;SDS011;34679;51.436;-2.518;2023-05-07T12:18:11;11.20;;;8.45;;
48859;SDS011;34679;51.436;-2.518;2023-05-07T12:20:38;11.43;;;7.45;;
48859;SDS011;34679;51.436;-2.518;2023-05-07T12:23:04;11.70;;;8.20;;
48859;SDS011;34679;51.436;-2.518;2023-05-07T12:25:40;12.15;;;8.00;;
48859;SDS011;34679;51.436;-2.518;2023-05-07T12:28:14;8.02;;;5.63;;
48859;SDS011;34679;51.436;-2.518;2023-05-07T12:30:45;13.73;;;5.82;;
48859;SDS011;34679;51.436;-2.518;2023-05-07T12:33:15;10.32;;;5.88;;
48859;SDS011;34679;51.436;-2.518;2023-05-07T12:35:43;13.02;;;6.20;;
48859;SDS011;34679;51.436;-2.518;2023-05-07T12:38:09;8.63;;;5.57;;
48859;SDS011;34679;51.436;-2.518;2023-05-07T12:40:36;13.80;;;6.05;;
48859;SDS011;34679;51.436;-2.518;2023-05-07T12:43:05;12.50;;;4.72;;
48859;SDS011;34679;51.436;-2.518;2023-05-07T12:45:35;8.15;;;4.30;;
48859;SDS011;34679;51.436;-2.518;2023-05-07T12:48:03;6.47;;;4.00;;
48859;SDS011;34679;51.436;-2.518;2023-05-07T12:50:32;9.05;;;4.63;;
48859;SDS011;34679;51.436;-2.518;2023-05-07T12:52:58;10.38;;;5.10;;
48859;SDS011;34679;51.436;-2.518;2023-05-07T12:55:24;9.60;;;6.68;;
48859;SDS011;34679;51.436;-2.518;2023-05-07T12:57:50;9.98;;;5.82;;
48859;SDS011;34679;51.436;-2.518;2023-05-07T13:00:18;9.68;;;5.38;;
48859;SDS011;34679;51.436;-2.518;2023-05-07T13:02:58;12.38;;;5.63;;
48859;SDS011;34679;51.436;-2.518;2023-05-07T13:05:27;9.90;;;4.32;;
48859;SDS011;34679;51.436;-2.518;2023-05-07T13:07:53;7.65;;;3.22;;
48859;SDS011;34679;51.436;-2.518;2023-05-07T13:10:19;5.95;;;2.60;;
48859;SDS011;34679;51.436;-2.518;2023-05-07T13:12:46;7.28;;;2.30;;
48859;SDS011;34679;51.436;-2.518;2023-05-07T13:15:11;9.10;;;2.63;;
48859;SDS011;34679;51.436;-2.518;2023-05-07T13:17:37;5.03;;;1.90;;
48859;SDS011;34679;51.436;-2.518;2023-05-07T13:20:03;8.57;;;2.08;;
48859;SDS011;34679;51.436;-2.518;2023-05-07T13:22:30;9.52;;;1.83;;
48859;SDS011;34679;51.436;-2.518;2023-05-07T13:24:56;7.38;;;2.05;;
48859;SDS011;34679;51.436;-2.518;2023-05-07T13:27:22;11.13;;;2.17;;
48859;SDS011;34679;51.436;-2.518;2023-05-07T13:29:48;11.43;;;2.28;;
48859;SDS011;34679;51.436;-2.518;2023-05-07T13:32:13;9.23;;;2.83;;
48859;SDS011;34679;51.436;-2.518;2023-05-07T13:34:39;8.52;;;2.38;;
48859;SDS011;34679;51.436;-2.518;2023-05-07T13:37:05;4.38;;;1.35;;
48859;SDS011;34679;51.436;-2.518;2023-05-07T13:39:32;7.20;;;2.30;;
48859;SDS011;34679;51.436;-2.518;2023-05-07T13:41:58;12.27;;;2.40;;
48859;SDS011;34679;51.436;-2.518;2023-05-07T13:44:24;7.85;;;1.92;;
48859;SDS011;34679;51.436;-2.518;2023-05-07T13:46:50;7.13;;;2.38;;
48859;SDS011;34679;51.436;-2.518;2023-05-07T13:49:16;7.75;;;1.80;;
48859;SDS011;34679;51.436;-2.518;2023-05-07T13:51:42;5.20;;;1.70;;
48859;SDS011;34679;51.436;-2.518;2023-05-07T13:54:07;6.00;;;2.00;;
48859;SDS011;34679;51.436;-2.518;2023-05-07T13:56:33;5.68;;;1.60;;
48859;SDS011;34679;51.436;-2.518;2023-05-07T13:58:59;6.25;;;2.00;;
48859;SDS011;34679;51.436;-2.518;2023-05-07T14:01:24;8.63;;;1.63;;
48859;SDS011;34679;51.436;-2.518;2023-05-07T14:03:50;8.75;;;2.78;;
48859;SDS011;34679;51.436;-2.518;2023-05-07T14:06:16;5.50;;;1.83;;
48859;SDS011;34679;51.436;-2.518;2023-05-07T14:08:41;9.65;;;2.22;;
48859;SDS011;34679;51.436;-2.518;2023-05-07T14:11:07;8.43;;;2.08;;
48859;SDS011;34679;51.436;-2.518;2023-05-07T14:13:33;13.60;;;2.13;;
48859;SDS011;34679;51.436;-2.518;2023-05-07T14:15:59;8.85;;;1.90;;
48859;SDS011;34679;51.436;-2.518;2023-05-07T14:18:26;5.43;;;2.03;;
48859;SDS011;34679;51.436;-2.518;2023-05-07T14:20:53;7.63;;;1.90;;
48859;SDS011;34679;51.436;-2.518;2023-05-07T14:23:19;8.50;;;2.20;;
48859;SDS011;34679;51.436;-2.518;2023-05-07T14:25:50;6.10;;;1.90;;
48859;SDS011;34679;51.436;-2.518;2023-05-07T14:28:16;6.90;;;1.77;;
48859;SDS011;34679;51.436;-2.518;2023-05-07T14:30:41;5.00;;;1.80;;
48859;SDS011;34679;51.436;-2.518;2023-05-07T14:33:07;7.57;;;1.95;;
48859;SDS011;34679;51.436;-2.518;2023-05-07T14:35:33;5.43;;;1.88;;
48859;SDS011;34679;51.436;-2.518;2023-05-07T14:37:59;7.15;;;2.53;;
48859;SDS011;34679;51.436;-2.518;2023-05-07T14:40:24;6.40;;;2.28;;
48859;SDS011;34679;51.436;-2.518;2023-05-07T14:42:50;6.07;;;1.70;;
48859;SDS011;34679;51.436;-2.518;2023-05-07T14:45:16;6.93;;;1.60;;
48859;SDS011;34679;51.436;-2.518;2023-05-07T14:47:41;8.57;;;2.20;;